sensor_id;sensor_type;location;lat;lon;timestamp;P1;durP1;ratioP1;P2;durP2;ratioP2
8708;SDS011;4391;48.678;9.280;2023-08-30T00:01:45;16.90;;;9.90;;
8708;SDS011;4391;48.678;9.280;2023-08-30T00:04:12;20.10;;;11.30;;
8708;SDS011;4391;48.678;9.280;2023-08-30T00:06:39;15.10;;;10.20;;
8708;SDS011;4391;48.678;9.280;2023-08-30T00:09:07;15.68;;;10.05;;
8708;SDS011;4391;48.678;9.280;2023-08-30T00:11:34;15.10;;;10.18;;
8708;SDS011;4391;48.678;9.280;2023-08-30T00:14:05;14.83;;;9.57;;
8708;SDS011;4391;48.678;9.280;2023-08-30T00:16:32;14.98;;;9.57;;
8708;SDS011;4391;48.678;9.280;2023-08-30T00:19:00;16.58;;;10.50;;
8708;SDS011;4391;48.678;9.280;2023-08-30T00:21:27;15.90;;;10.15;;
8708;SDS011;4391;48.678;9.280;2023-08-30T00:23:54;16.63;;;10.10;;
8708;SDS011;4391;48.678;9.280;2023-08-30T00:26:22;14.67;;;10.00;;
8708;SDS011;4391;48.678;9.280;2023-08-30T00:28:49;17.20;;;11.02;;
8708;SDS011;4391;48.678;9.280;2023-08-30T00:31:16;16.95;;;10.27;;
8708;SDS011;4391;48.678;9.280;2023-08-30T00:33:43;16.23;;;11.07;;
8708;SDS011;4391;48.678;9.280;2023-08-30T00:36:10;17.95;;;9.93;;
8708;SDS011;4391;48.678;9.280;2023-08-30T00:38:37;15.37;;;10.10;;
8708;SDS011;4391;48.678;9.280;2023-08-30T00:41:04;17.20;;;10.30;;
8708;SDS011;4391;48.678;9.280;2023-08-30T00:43:32;16.70;;;9.93;;
8708;SDS011;4391;48.678;9.280;2023-08-30T00:45:59;16.98;;;10.10;;
8708;SDS011;4391;48.678;9.280;2023-08-30T00:48:26;16.63;;;10.43;;
8708;SDS011;4391;48.678;9.280;2023-08-30T00:50:53;16.13;;;9.90;;
8708;SDS011;4391;48.678;9.280;2023-08-30T00:53:20;15.80;;;10.07;;
8708;SDS011;4391;48.678;9.280;2023-08-30T00:55:47;17.75;;;10.57;;
8708;SDS011;4391;48.678;9.280;2023-08-30T00:58:16;17.48;;;11.48;;
8708;SDS011;4391;48.678;9.280;2023-08-30T01:00:45;17.88;;;10.85;;
8708;SDS011;4391;48.678;9.280;2023-08-30T01:03:12;16.43;;;10.80;;
8708;SDS011;4391;48.678;9.280;2023-08-30T01:05:39;19.88;;;11.48;;
8708;SDS011;4391;48.678;9.280;2023-08-30T01:08:06;19.10;;;10.88;;
8708;SDS011;4391;48.678;9.280;2023-08-30T01:10:37;18.35;;;12.02;;
8708;SDS011;4391;48.678;9.280;2023-08-30T01:13:09;16.27;;;11.00;;
8708;SDS011;4391;48.678;9.280;2023-08-30T01:15:39;17.03;;;11.03;;
8708;SDS011;4391;48.678;9.280;2023-08-30T01:18:10;19.77;;;11.30;;
8708;SDS011;4391;48.678;9.280;2023-08-30T01:20:38;18.02;;;10.85;;
8708;SDS011;4391;48.678;9.280;2023-08-30T01:23:06;17.30;;;11.73;;
8708;SDS011;4391;48.678;9.280;2023-08-30T01:25:46;17.65;;;10.52;;
8708;SDS011;4391;48.678;9.280;2023-08-30T01:28:22;18.20;;;10.97;;
8708;SDS011;4391;48.678;9.280;2023-08-30T01:30:52;17.13;;;10.23;;
8708;SDS011;4391;48.678;9.280;2023-08-30T01:33:20;15.48;;;9.82;;
8708;SDS011;4391;48.678;9.280;2023-08-30T01:35:48;20.15;;;11.02;;
8708;SDS011;4391;48.678;9.280;2023-08-30T01:38:15;17.15;;;10.80;;
8708;SDS011;4391;48.678;9.280;2023-08-30T01:40:43;18.97;;;11.03;;
8708;SDS011;4391;48.678;9.280;2023-08-30T01:43:10;16.85;;;10.80;;
8708;SDS011;4391;48.678;9.280;2023-08-30T01:45:40;16.40;;;10.70;;
8708;SDS011;4391;48.678;9.280;2023-08-30T01:48:09;16.73;;;10.82;;
8708;SDS011;4391;48.678;9.280;2023-08-30T01:50:37;20.63;;;11.10;;
8708;SDS011;4391;48.678;9.280;2023-08-30T01:53:05;15.90;;;10.57;;
8708;SDS011;4391;48.678;9.280;2023-08-30T01:55:32;16.60;;;10.52;;
8708;SDS011;4391;48.678;9.280;2023-08-30T01:58:00;16.50;;;11.35;;
8708;SDS011;4391;48.678;9.280;2023-08-30T02:00:27;18.52;;;10.43;;
8708;SDS011;4391;48.678;9.280;2023-08-30T02:02:55;17.42;;;10.75;;
8708;SDS011;4391;48.678;9.280;2023-08-30T02:05:22;15.77;;;11.00;;
8708;SDS011;4391;48.678;9.280;2023-08-30T02:07:51;20.33;;;11.15;;
8708;SDS011;4391;48.678;9.280;2023-08-30T02:10:24;17.73;;;10.60;;
8708;SDS011;4391;48.678;9.280;2023-08-30T02:12:54;19.77;;;9.85;;
8708;SDS011;4391;48.678;9.280;2023-08-30T02:15:22;19.02;;;10.32;;
8708;SDS011;4391;48.678;9.280;2023-08-30T02:17:50;19.63;;;10.63;;
8708;SDS011;4391;48.678;9.280;2023-08-30T02:20:19;15.20;;;9.57;;
8708;SDS011;4391;48.678;9.280;2023-08-30T02:22:46;19.60;;;10.63;;
8708;SDS011;4391;48.678;9.280;2023-08-30T02:25:12;16.45;;;10.10;;
8708;SDS011;4391;48.678;9.280;2023-08-30T02:27:39;14.45;;;9.40;;
8708;SDS011;4391;48.678;9.280;2023-08-30T02:30:06;14.60;;;9.73;;
8708;SDS011;4391;48.678;9.280;2023-08-30T02:32:34;17.35;;;9.65;;
8708;SDS011;4391;48.678;9.280;2023-08-30T02:35:01;17.23;;;9.43;;
8708;SDS011;4391;48.678;9.280;2023-08-30T02:37:30;15.88;;;9.93;;
8708;SDS011;4391;48.678;9.280;2023-08-30T02:39:57;18.15;;;9.73;;
8708;SDS011;4391;48.678;9.280;2023-08-30T02:42:23;21.30;;;10.50;;
8708;SDS011;4391;48.678;9.280;2023-08-30T02:44:51;16.08;;;9.95;;
8708;SDS011;4391;48.678;9.280;2023-08-30T02:47:18;16.05;;;10.57;;
8708;SDS011;4391;48.678;9.280;2023-08-30T02:49:44;19.20;;;10.20;;
8708;SDS011;4391;48.678;9.280;2023-08-30T02:52:11;17.65;;;11.13;;
8708;SDS011;4391;48.678;9.280;2023-08-30T02:54:39;16.43;;;11.03;;
8708;SDS011;4391;48.678;9.280;2023-08-30T02:57:06;15.77;;;10.45;;
8708;SDS011;4391;48.678;9.280;2023-08-30T02:59:34;17.30;;;10.90;;
8708;SDS011;4391;48.678;9.280;2023-08-30T03:02:01;16.65;;;10.65;;
8708;SDS011;4391;48.678;9.280;2023-08-30T03:04:28;17.42;;;10.95;;
8708;SDS011;4391;48.678;9.280;2023-08-30T03:06:54;15.97;;;10.40;;
8708;SDS011;4391;48.678;9.280;2023-08-30T03:09:21;16.63;;;10.18;;
8708;SDS011;4391;48.678;9.280;2023-08-30T03:11:49;16.35;;;9.98;;
8708;SDS011;4391;48.678;9.280;2023-08-30T03:14:16;15.73;;;9.90;;
8708;SDS011;4391;48.678;9.280;2023-08-30T03:16:43;15.35;;;10.00;;
8708;SDS011;4391;48.678;9.280;2023-08-30T03:19:12;15.60;;;9.87;;
8708;SDS011;4391;48.678;9.280;2023-08-30T03:21:38;14.93;;;9.63;;
8708;SDS011;4391;48.678;9.280;2023-08-30T03:24:05;15.27;;;9.70;;
8708;SDS011;4391;48.678;9.280;2023-08-30T03:26:32;15.82;;;9.95;;
8708;SDS011;4391;48.678;9.280;2023-08-30T03:29:00;13.88;;;9.07;;
8708;SDS011;4391;48.678;9.280;2023-08-30T03:31:28;16.27;;;10.10;;
8708;SDS011;4391;48.678;9.280;2023-08-30T03:33:55;15.10;;;9.70;;
8708;SDS011;4391;48.678;9.280;2023-08-30T03:36:22;15.32;;;9.52;;
8708;SDS011;4391;48.678;9.280;2023-08-30T03:38:48;15.73;;;9.18;;
8708;SDS011;4391;48.678;9.280;2023-08-30T03:41:15;14.48;;;9.50;;
8708;SDS011;4391;48.678;9.280;2023-08-30T03:43:42;15.53;;;9.37;;
8708;SDS011;4391;48.678;9.280;2023-08-30T03:46:10;18.00;;;10.10;;
8708;SDS011;4391;48.678;9.280;2023-08-30T03:48:37;20.05;;;9.20;;
8708;SDS011;4391;48.678;9.280;2023-08-30T03:51:04;14.25;;;9.85;;
8708;SDS011;4391;48.678;9.280;2023-08-30T03:53:31;14.98;;;9.38;;
8708;SDS011;4391;48.678;9.280;2023-08-30T03:55:58;15.20;;;9.80;;
8708;SDS011;4391;48.678;9.280;2023-08-30T03:58:25;15.73;;;10.00;;
8708;SDS011;4391;48.678;9.280;2023-08-30T04:00:52;16.77;;;9.73;;
8708;SDS011;4391;48.678;9.280;2023-08-30T04:03:20;16.50;;;10.05;;
8708;SDS011;4391;48.678;9.280;2023-08-30T04:05:47;16.80;;;10.07;;
8708;SDS011;4391;48.678;9.280;2023-08-30T04:08:14;14.80;;;9.33;;
8708;SDS011;4391;48.678;9.280;2023-08-30T04:10:41;16.25;;;10.25;;
8708;SDS011;4391;48.678;9.280;2023-08-30T04:13:08;18.88;;;10.05;;
8708;SDS011;4391;48.678;9.280;2023-08-30T04:15:35;15.95;;;9.63;;
8708;SDS011;4391;48.678;9.280;2023-08-30T04:18:03;14.27;;;9.13;;
8708;SDS011;4391;48.678;9.280;2023-08-30T04:20:32;14.37;;;9.37;;
8708;SDS011;4391;48.678;9.280;2023-08-30T04:23:00;18.20;;;9.57;;
8708;SDS011;4391;48.678;9.280;2023-08-30T04:25:27;15.13;;;8.90;;
8708;SDS011;4391;48.678;9.280;2023-08-30T04:27:54;15.07;;;9.40;;
8708;SDS011;4391;48.678;9.280;2023-08-30T04:30:21;16.58;;;9.45;;
8708;SDS011;4391;48.678;9.280;2023-08-30T04:32:48;20.60;;;10.13;;
8708;SDS011;4391;48.678;9.280;2023-08-30T04:35:15;16.63;;;10.60;;
8708;SDS011;4391;48.678;9.280;2023-08-30T04:37:43;13.80;;;8.98;;
8708;SDS011;4391;48.678;9.280;2023-08-30T04:40:10;15.38;;;9.57;;
8708;SDS011;4391;48.678;9.280;2023-08-30T04:42:37;17.48;;;10.05;;
8708;SDS011;4391;48.678;9.280;2023-08-30T04:45:06;15.20;;;9.57;;
8708;SDS011;4391;48.678;9.280;2023-08-30T04:47:34;16.85;;;10.35;;
8708;SDS011;4391;48.678;9.280;2023-08-30T04:50:01;19.15;;;10.88;;
8708;SDS011;4391;48.678;9.280;2023-08-30T04:52:28;14.98;;;10.13;;
8708;SDS011;4391;48.678;9.280;2023-08-30T04:54:56;17.67;;;10.95;;
8708;SDS011;4391;48.678;9.280;2023-08-30T04:57:23;17.77;;;10.17;;
8708;SDS011;4391;48.678;9.280;2023-08-30T04:59:50;18.10;;;10.52;;
8708;SDS011;4391;48.678;9.280;2023-08-30T05:02:17;16.00;;;10.38;;
8708;SDS011;4391;48.678;9.280;2023-08-30T05:07:11;16.05;;;10.52;;
8708;SDS011;4391;48.678;9.280;2023-08-30T05:09:39;18.67;;;10.10;;
8708;SDS011;4391;48.678;9.280;2023-08-30T05:12:08;17.83;;;10.38;;
8708;SDS011;4391;48.678;9.280;2023-08-30T05:14:35;17.52;;;10.55;;
8708;SDS011;4391;48.678;9.280;2023-08-30T05:17:02;15.50;;;9.48;;
8708;SDS011;4391;48.678;9.280;2023-08-30T05:19:29;18.55;;;9.55;;
8708;SDS011;4391;48.678;9.280;2023-08-30T05:21:55;17.13;;;10.30;;
8708;SDS011;4391;48.678;9.280;2023-08-30T05:24:22;16.90;;;10.20;;
8708;SDS011;4391;48.678;9.280;2023-08-30T05:26:51;15.45;;;9.70;;
8708;SDS011;4391;48.678;9.280;2023-08-30T05:29:19;17.20;;;9.57;;
8708;SDS011;4391;48.678;9.280;2023-08-30T05:31:46;16.02;;;9.43;;
8708;SDS011;4391;48.678;9.280;2023-08-30T05:34:13;14.67;;;9.23;;
8708;SDS011;4391;48.678;9.280;2023-08-30T05:36:40;17.17;;;9.98;;
8708;SDS011;4391;48.678;9.280;2023-08-30T05:39:06;18.23;;;9.63;;
8708;SDS011;4391;48.678;9.280;2023-08-30T05:41:33;19.20;;;9.32;;
8708;SDS011;4391;48.678;9.280;2023-08-30T05:44:00;14.90;;;9.20;;
8708;SDS011;4391;48.678;9.280;2023-08-30T05:46:29;14.07;;;9.00;;
8708;SDS011;4391;48.678;9.280;2023-08-30T05:48:55;15.15;;;9.02;;
8708;SDS011;4391;48.678;9.280;2023-08-30T05:51:22;13.93;;;8.88;;
8708;SDS011;4391;48.678;9.280;2023-08-30T05:53:49;13.30;;;8.05;;
8708;SDS011;4391;48.678;9.280;2023-08-30T05:56:16;13.30;;;9.02;;
8708;SDS011;4391;48.678;9.280;2023-08-30T05:58:43;13.87;;;9.03;;
8708;SDS011;4391;48.678;9.280;2023-08-30T06:01:10;15.32;;;8.52;;
8708;SDS011;4391;48.678;9.280;2023-08-30T06:03:38;12.98;;;8.23;;
8708;SDS011;4391;48.678;9.280;2023-08-30T06:06:05;13.75;;;8.15;;
8708;SDS011;4391;48.678;9.280;2023-08-30T06:08:32;11.63;;;7.65;;
8708;SDS011;4391;48.678;9.280;2023-08-30T06:10:58;12.40;;;7.33;;
8708;SDS011;4391;48.678;9.280;2023-08-30T06:13:25;13.77;;;7.32;;
8708;SDS011;4391;48.678;9.280;2023-08-30T06:15:52;11.60;;;7.05;;
8708;SDS011;4391;48.678;9.280;2023-08-30T06:18:19;11.98;;;7.25;;
8708;SDS011;4391;48.678;9.280;2023-08-30T06:20:47;11.23;;;7.25;;
8708;SDS011;4391;48.678;9.280;2023-08-30T06:23:14;13.03;;;7.50;;
8708;SDS011;4391;48.678;9.280;2023-08-30T06:25:44;12.05;;;7.60;;
8708;SDS011;4391;48.678;9.280;2023-08-30T06:28:11;13.63;;;7.18;;
8708;SDS011;4391;48.678;9.280;2023-08-30T06:30:38;11.82;;;6.90;;
8708;SDS011;4391;48.678;9.280;2023-08-30T06:33:04;12.02;;;6.97;;
8708;SDS011;4391;48.678;9.280;2023-08-30T06:35:31;11.00;;;7.43;;
8708;SDS011;4391;48.678;9.280;2023-08-30T06:37:59;12.07;;;7.35;;
8708;SDS011;4391;48.678;9.280;2023-08-30T06:40:26;12.07;;;6.78;;
8708;SDS011;4391;48.678;9.280;2023-08-30T06:42:53;10.32;;;6.88;;
8708;SDS011;4391;48.678;9.280;2023-08-30T06:45:20;11.15;;;6.25;;
8708;SDS011;4391;48.678;9.280;2023-08-30T06:47:47;11.47;;;6.87;;
8708;SDS011;4391;48.678;9.280;2023-08-30T06:50:14;10.23;;;6.32;;
8708;SDS011;4391;48.678;9.280;2023-08-30T06:52:41;10.82;;;6.30;;
8708;SDS011;4391;48.678;9.280;2023-08-30T06:55:10;10.55;;;6.10;;
8708;SDS011;4391;48.678;9.280;2023-08-30T06:57:36;9.05;;;6.32;;
8708;SDS011;4391;48.678;9.280;2023-08-30T07:00:04;10.50;;;6.60;;
8708;SDS011;4391;48.678;9.280;2023-08-30T07:02:32;9.60;;;5.50;;
8708;SDS011;4391;48.678;9.280;2023-08-30T07:05:00;11.50;;;5.80;;
8708;SDS011;4391;48.678;9.280;2023-08-30T07:07:29;8.52;;;5.40;;
8708;SDS011;4391;48.678;9.280;2023-08-30T07:09:56;7.63;;;5.45;;
8708;SDS011;4391;48.678;9.280;2023-08-30T07:12:24;8.63;;;5.60;;
8708;SDS011;4391;48.678;9.280;2023-08-30T07:14:52;8.27;;;5.70;;
8708;SDS011;4391;48.678;9.280;2023-08-30T07:17:19;8.38;;;5.07;;
8708;SDS011;4391;48.678;9.280;2023-08-30T07:19:45;8.18;;;5.40;;
8708;SDS011;4391;48.678;9.280;2023-08-30T07:22:12;9.60;;;5.60;;
8708;SDS011;4391;48.678;9.280;2023-08-30T07:24:41;9.23;;;5.53;;
8708;SDS011;4391;48.678;9.280;2023-08-30T07:27:08;10.65;;;6.05;;
8708;SDS011;4391;48.678;9.280;2023-08-30T07:29:36;8.68;;;5.30;;
8708;SDS011;4391;48.678;9.280;2023-08-30T07:32:03;7.50;;;4.95;;
8708;SDS011;4391;48.678;9.280;2023-08-30T07:34:30;10.10;;;4.97;;
8708;SDS011;4391;48.678;9.280;2023-08-30T07:36:57;8.57;;;4.60;;
8708;SDS011;4391;48.678;9.280;2023-08-30T07:39:24;7.60;;;4.50;;
8708;SDS011;4391;48.678;9.280;2023-08-30T07:41:51;7.43;;;4.88;;
8708;SDS011;4391;48.678;9.280;2023-08-30T07:44:18;7.55;;;5.10;;
8708;SDS011;4391;48.678;9.280;2023-08-30T07:46:47;8.15;;;5.20;;
8708;SDS011;4391;48.678;9.280;2023-08-30T07:49:14;7.10;;;4.53;;
8708;SDS011;4391;48.678;9.280;2023-08-30T07:51:40;8.52;;;5.10;;
8708;SDS011;4391;48.678;9.280;2023-08-30T07:54:07;8.65;;;5.10;;
8708;SDS011;4391;48.678;9.280;2023-08-30T07:56:34;8.13;;;4.78;;
8708;SDS011;4391;48.678;9.280;2023-08-30T07:59:01;7.28;;;4.75;;
8708;SDS011;4391;48.678;9.280;2023-08-30T08:01:28;6.90;;;4.43;;
8708;SDS011;4391;48.678;9.280;2023-08-30T08:03:56;8.48;;;4.65;;
8708;SDS011;4391;48.678;9.280;2023-08-30T08:06:23;6.72;;;4.18;;
8708;SDS011;4391;48.678;9.280;2023-08-30T08:08:50;9.35;;;4.43;;
8708;SDS011;4391;48.678;9.280;2023-08-30T08:11:17;11.20;;;4.40;;
8708;SDS011;4391;48.678;9.280;2023-08-30T08:13:43;8.47;;;4.83;;
8708;SDS011;4391;48.678;9.280;2023-08-30T08:16:11;8.00;;;4.50;;
8708;SDS011;4391;48.678;9.280;2023-08-30T08:18:38;6.35;;;4.15;;
8708;SDS011;4391;48.678;9.280;2023-08-30T08:21:06;7.57;;;4.47;;
8708;SDS011;4391;48.678;9.280;2023-08-30T08:23:33;7.18;;;4.10;;
8708;SDS011;4391;48.678;9.280;2023-08-30T08:25:59;5.77;;;3.50;;
8708;SDS011;4391;48.678;9.280;2023-08-30T08:28:27;7.85;;;3.70;;
8708;SDS011;4391;48.678;9.280;2023-08-30T08:30:54;6.40;;;4.07;;
8708;SDS011;4391;48.678;9.280;2023-08-30T08:33:21;7.03;;;3.85;;
8708;SDS011;4391;48.678;9.280;2023-08-30T08:35:49;15.50;;;4.18;;
8708;SDS011;4391;48.678;9.280;2023-08-30T08:38:17;5.80;;;3.60;;
8708;SDS011;4391;48.678;9.280;2023-08-30T08:40:44;6.38;;;3.72;;
8708;SDS011;4391;48.678;9.280;2023-08-30T08:43:11;7.22;;;3.65;;
8708;SDS011;4391;48.678;9.280;2023-08-30T08:45:38;8.90;;;4.22;;
8708;SDS011;4391;48.678;9.280;2023-08-30T08:48:05;6.35;;;3.35;;
8708;SDS011;4391;48.678;9.280;2023-08-30T08:50:33;7.03;;;4.17;;
8708;SDS011;4391;48.678;9.280;2023-08-30T08:53:00;6.22;;;3.30;;
8708;SDS011;4391;48.678;9.280;2023-08-30T08:55:30;6.22;;;3.60;;
8708;SDS011;4391;48.678;9.280;2023-08-30T08:57:59;6.80;;;3.72;;
8708;SDS011;4391;48.678;9.280;2023-08-30T09:00:29;6.22;;;3.53;;
8708;SDS011;4391;48.678;9.280;2023-08-30T09:02:57;5.50;;;3.47;;
8708;SDS011;4391;48.678;9.280;2023-08-30T09:05:23;6.00;;;3.30;;
8708;SDS011;4391;48.678;9.280;2023-08-30T09:07:50;5.32;;;3.35;;
8708;SDS011;4391;48.678;9.280;2023-08-30T09:10:19;10.80;;;3.75;;
8708;SDS011;4391;48.678;9.280;2023-08-30T09:12:48;5.30;;;3.30;;
8708;SDS011;4391;48.678;9.280;2023-08-30T09:15:15;5.50;;;3.50;;
8708;SDS011;4391;48.678;9.280;2023-08-30T09:17:42;7.47;;;3.13;;
8708;SDS011;4391;48.678;9.280;2023-08-30T09:20:09;6.50;;;3.22;;
8708;SDS011;4391;48.678;9.280;2023-08-30T09:22:40;5.60;;;3.30;;
8708;SDS011;4391;48.678;9.280;2023-08-30T09:25:09;6.65;;;3.45;;
8708;SDS011;4391;48.678;9.280;2023-08-30T09:27:37;5.33;;;3.07;;
8708;SDS011;4391;48.678;9.280;2023-08-30T09:30:08;4.75;;;2.55;;
8708;SDS011;4391;48.678;9.280;2023-08-30T09:32:39;4.60;;;2.53;;
8708;SDS011;4391;48.678;9.280;2023-08-30T09:35:08;4.95;;;2.58;;
8708;SDS011;4391;48.678;9.280;2023-08-30T09:37:35;5.95;;;2.60;;
8708;SDS011;4391;48.678;9.280;2023-08-30T09:40:02;5.30;;;2.60;;
8708;SDS011;4391;48.678;9.280;2023-08-30T09:42:30;4.60;;;2.63;;
8708;SDS011;4391;48.678;9.280;2023-08-30T09:44:58;5.18;;;2.53;;
8708;SDS011;4391;48.678;9.280;2023-08-30T09:47:26;4.60;;;2.33;;
8708;SDS011;4391;48.678;9.280;2023-08-30T09:49:55;5.35;;;2.70;;
8708;SDS011;4391;48.678;9.280;2023-08-30T09:52:24;5.33;;;2.60;;
8708;SDS011;4391;48.678;9.280;2023-08-30T09:54:51;5.75;;;2.50;;
8708;SDS011;4391;48.678;9.280;2023-08-30T09:57:18;4.85;;;2.40;;
8708;SDS011;4391;48.678;9.280;2023-08-30T09:59:47;5.70;;;2.50;;
8708;SDS011;4391;48.678;9.280;2023-08-30T10:02:15;4.78;;;2.40;;
8708;SDS011;4391;48.678;9.280;2023-08-30T10:04:44;5.90;;;2.57;;
8708;SDS011;4391;48.678;9.280;2023-08-30T10:07:12;5.25;;;2.40;;
8708;SDS011;4391;48.678;9.280;2023-08-30T10:09:40;6.72;;;2.00;;
8708;SDS011;4391;48.678;9.280;2023-08-30T10:12:08;4.50;;;2.40;;
8708;SDS011;4391;48.678;9.280;2023-08-30T10:14:37;4.25;;;2.00;;
8708;SDS011;4391;48.678;9.280;2023-08-30T10:17:04;4.23;;;2.40;;
8708;SDS011;4391;48.678;9.280;2023-08-30T10:19:35;3.53;;;1.92;;
8708;SDS011;4391;48.678;9.280;2023-08-30T10:22:06;4.68;;;1.85;;
8708;SDS011;4391;48.678;9.280;2023-08-30T10:24:38;4.20;;;2.15;;
8708;SDS011;4391;48.678;9.280;2023-08-30T10:27:07;5.82;;;2.10;;
8708;SDS011;4391;48.678;9.280;2023-08-30T10:29:35;7.63;;;2.70;;
8708;SDS011;4391;48.678;9.280;2023-08-30T10:32:06;4.88;;;2.15;;
8708;SDS011;4391;48.678;9.280;2023-08-30T10:34:33;4.55;;;2.15;;
8708;SDS011;4391;48.678;9.280;2023-08-30T10:37:02;4.20;;;2.15;;
8708;SDS011;4391;48.678;9.280;2023-08-30T10:39:34;4.82;;;1.92;;
8708;SDS011;4391;48.678;9.280;2023-08-30T10:42:06;4.87;;;1.77;;
8708;SDS011;4391;48.678;9.280;2023-08-30T10:44:35;3.80;;;1.95;;
8708;SDS011;4391;48.678;9.280;2023-08-30T10:47:17;3.92;;;1.90;;
8708;SDS011;4391;48.678;9.280;2023-08-30T10:49:46;3.53;;;1.77;;
8708;SDS011;4391;48.678;9.280;2023-08-30T10:52:13;2.90;;;1.50;;
8708;SDS011;4391;48.678;9.280;2023-08-30T10:54:41;3.70;;;1.60;;
8708;SDS011;4391;48.678;9.280;2023-08-30T10:57:12;3.92;;;1.67;;
8708;SDS011;4391;48.678;9.280;2023-08-30T10:59:39;3.40;;;1.73;;
8708;SDS011;4391;48.678;9.280;2023-08-30T11:02:06;3.80;;;1.90;;
8708;SDS011;4391;48.678;9.280;2023-08-30T11:04:38;3.90;;;1.70;;
8708;SDS011;4391;48.678;9.280;2023-08-30T11:07:07;3.33;;;1.60;;
8708;SDS011;4391;48.678;9.280;2023-08-30T11:09:36;5.05;;;1.90;;
8708;SDS011;4391;48.678;9.280;2023-08-30T11:12:07;3.50;;;1.77;;
8708;SDS011;4391;48.678;9.280;2023-08-30T11:14:34;3.58;;;1.67;;
8708;SDS011;4391;48.678;9.280;2023-08-30T11:17:01;4.65;;;1.58;;
8708;SDS011;4391;48.678;9.280;2023-08-30T11:19:29;3.90;;;1.40;;
8708;SDS011;4391;48.678;9.280;2023-08-30T11:21:57;3.20;;;1.42;;
8708;SDS011;4391;48.678;9.280;2023-08-30T11:24:24;3.25;;;1.40;;
8708;SDS011;4391;48.678;9.280;2023-08-30T11:26:52;3.60;;;1.60;;
8708;SDS011;4391;48.678;9.280;2023-08-30T11:29:21;3.38;;;1.50;;
8708;SDS011;4391;48.678;9.280;2023-08-30T11:31:48;3.03;;;1.60;;
8708;SDS011;4391;48.678;9.280;2023-08-30T11:34:15;4.22;;;1.60;;
8708;SDS011;4391;48.678;9.280;2023-08-30T11:36:47;4.25;;;1.42;;
8708;SDS011;4391;48.678;9.280;2023-08-30T11:39:15;3.88;;;1.55;;
8708;SDS011;4391;48.678;9.280;2023-08-30T11:41:42;4.47;;;1.45;;
8708;SDS011;4391;48.678;9.280;2023-08-30T11:44:09;3.00;;;1.27;;
8708;SDS011;4391;48.678;9.280;2023-08-30T11:46:38;2.90;;;1.35;;
8708;SDS011;4391;48.678;9.280;2023-08-30T11:49:05;2.50;;;1.10;;
8708;SDS011;4391;48.678;9.280;2023-08-30T11:51:32;3.53;;;1.50;;
8708;SDS011;4391;48.678;9.280;2023-08-30T11:53:59;19.48;;;2.03;;
8708;SDS011;4391;48.678;9.280;2023-08-30T11:56:28;3.03;;;1.60;;
8708;SDS011;4391;48.678;9.280;2023-08-30T11:58:55;3.40;;;1.48;;
8708;SDS011;4391;48.678;9.280;2023-08-30T12:01:22;4.40;;;1.55;;
8708;SDS011;4391;48.678;9.280;2023-08-30T12:03:50;3.00;;;1.33;;
8708;SDS011;4391;48.678;9.280;2023-08-30T12:06:17;4.85;;;1.67;;
8708;SDS011;4391;48.678;9.280;2023-08-30T12:08:44;3.83;;;1.60;;
8708;SDS011;4391;48.678;9.280;2023-08-30T12:11:17;3.42;;;1.40;;
8708;SDS011;4391;48.678;9.280;2023-08-30T12:13:45;3.65;;;1.40;;
8708;SDS011;4391;48.678;9.280;2023-08-30T12:16:15;2.85;;;1.30;;
8708;SDS011;4391;48.678;9.280;2023-08-30T12:18:42;3.80;;;1.55;;
8708;SDS011;4391;48.678;9.280;2023-08-30T12:21:12;4.23;;;1.50;;
8708;SDS011;4391;48.678;9.280;2023-08-30T12:23:40;4.45;;;1.23;;
8708;SDS011;4391;48.678;9.280;2023-08-30T12:26:07;3.13;;;1.48;;
8708;SDS011;4391;48.678;9.280;2023-08-30T12:28:34;3.45;;;1.50;;
8708;SDS011;4391;48.678;9.280;2023-08-30T12:31:02;2.83;;;1.10;;
8708;SDS011;4391;48.678;9.280;2023-08-30T12:33:30;5.20;;;1.50;;
8708;SDS011;4391;48.678;9.280;2023-08-30T12:35:57;8.50;;;1.73;;
8708;SDS011;4391;48.678;9.280;2023-08-30T12:38:25;4.88;;;1.70;;
8708;SDS011;4391;48.678;9.280;2023-08-30T12:40:53;4.10;;;1.92;;
8708;SDS011;4391;48.678;9.280;2023-08-30T12:43:21;4.40;;;1.77;;
8708;SDS011;4391;48.678;9.280;2023-08-30T12:45:49;3.80;;;1.50;;
8708;SDS011;4391;48.678;9.280;2023-08-30T12:48:16;4.50;;;1.77;;
8708;SDS011;4391;48.678;9.280;2023-08-30T12:50:44;4.38;;;1.80;;
8708;SDS011;4391;48.678;9.280;2023-08-30T12:53:12;3.50;;;1.80;;
8708;SDS011;4391;48.678;9.280;2023-08-30T12:55:42;4.53;;;2.05;;
8708;SDS011;4391;48.678;9.280;2023-08-30T12:58:10;3.40;;;1.50;;
8708;SDS011;4391;48.678;9.280;2023-08-30T13:00:39;4.57;;;1.70;;
8708;SDS011;4391;48.678;9.280;2023-08-30T13:03:06;4.55;;;1.98;;
8708;SDS011;4391;48.678;9.280;2023-08-30T13:05:33;5.10;;;2.10;;
8708;SDS011;4391;48.678;9.280;2023-08-30T13:08:01;6.35;;;2.13;;
8708;SDS011;4391;48.678;9.280;2023-08-30T13:10:28;5.30;;;1.90;;
8708;SDS011;4391;48.678;9.280;2023-08-30T13:12:56;3.92;;;1.80;;
8708;SDS011;4391;48.678;9.280;2023-08-30T13:15:23;5.75;;;2.10;;
8708;SDS011;4391;48.678;9.280;2023-08-30T13:17:50;5.78;;;1.88;;
8708;SDS011;4391;48.678;9.280;2023-08-30T13:20:17;4.43;;;1.67;;
8708;SDS011;4391;48.678;9.280;2023-08-30T13:22:45;5.10;;;1.60;;
8708;SDS011;4391;48.678;9.280;2023-08-30T13:25:12;3.60;;;1.65;;
8708;SDS011;4391;48.678;9.280;2023-08-30T13:27:38;4.93;;;2.10;;
8708;SDS011;4391;48.678;9.280;2023-08-30T13:30:07;4.15;;;1.83;;
8708;SDS011;4391;48.678;9.280;2023-08-30T13:32:34;3.95;;;1.90;;
8708;SDS011;4391;48.678;9.280;2023-08-30T13:35:01;4.50;;;2.07;;
8708;SDS011;4391;48.678;9.280;2023-08-30T13:37:27;5.35;;;2.20;;
8708;SDS011;4391;48.678;9.280;2023-08-30T13:39:54;4.03;;;1.95;;
8708;SDS011;4391;48.678;9.280;2023-08-30T13:42:21;4.07;;;2.00;;
8708;SDS011;4391;48.678;9.280;2023-08-30T13:44:50;4.63;;;1.80;;
8708;SDS011;4391;48.678;9.280;2023-08-30T13:47:18;3.63;;;1.67;;
8708;SDS011;4391;48.678;9.280;2023-08-30T13:49:45;3.88;;;1.67;;
8708;SDS011;4391;48.678;9.280;2023-08-30T13:52:12;4.85;;;2.10;;
8708;SDS011;4391;48.678;9.280;2023-08-30T13:54:39;3.35;;;1.30;;
8708;SDS011;4391;48.678;9.280;2023-08-30T13:57:06;3.30;;;1.20;;
8708;SDS011;4391;48.678;9.280;2023-08-30T13:59:32;3.33;;;1.30;;
8708;SDS011;4391;48.678;9.280;2023-08-30T14:02:01;4.03;;;1.60;;
8708;SDS011;4391;48.678;9.280;2023-08-30T14:04:30;3.60;;;1.55;;
8708;SDS011;4391;48.678;9.280;2023-08-30T14:06:59;3.60;;;1.90;;
8708;SDS011;4391;48.678;9.280;2023-08-30T14:09:26;6.40;;;1.48;;
8708;SDS011;4391;48.678;9.280;2023-08-30T14:11:52;3.37;;;1.40;;
8708;SDS011;4391;48.678;9.280;2023-08-30T14:14:20;3.25;;;1.15;;
8708;SDS011;4391;48.678;9.280;2023-08-30T14:16:47;4.38;;;1.10;;
8708;SDS011;4391;48.678;9.280;2023-08-30T14:19:15;3.47;;;1.30;;
8708;SDS011;4391;48.678;9.280;2023-08-30T14:21:44;2.90;;;1.00;;
8708;SDS011;4391;48.678;9.280;2023-08-30T14:24:11;3.53;;;1.33;;
8708;SDS011;4391;48.678;9.280;2023-08-30T14:26:37;2.55;;;0.90;;
8708;SDS011;4391;48.678;9.280;2023-08-30T14:29:04;3.15;;;1.20;;
8708;SDS011;4391;48.678;9.280;2023-08-30T14:31:31;3.60;;;1.27;;
8708;SDS011;4391;48.678;9.280;2023-08-30T14:33:58;2.85;;;1.05;;
8708;SDS011;4391;48.678;9.280;2023-08-30T14:36:25;3.47;;;1.20;;
8708;SDS011;4391;48.678;9.280;2023-08-30T14:38:53;3.67;;;1.25;;
8708;SDS011;4391;48.678;9.280;2023-08-30T14:41:20;4.80;;;1.30;;
8708;SDS011;4391;48.678;9.280;2023-08-30T14:43:46;4.35;;;1.33;;
8708;SDS011;4391;48.678;9.280;2023-08-30T14:46:13;3.60;;;1.23;;
8708;SDS011;4391;48.678;9.280;2023-08-30T14:48:41;5.67;;;1.43;;
8708;SDS011;4391;48.678;9.280;2023-08-30T14:51:08;3.15;;;1.20;;
8708;SDS011;4391;48.678;9.280;2023-08-30T14:53:35;2.78;;;1.08;;
8708;SDS011;4391;48.678;9.280;2023-08-30T14:56:03;4.18;;;1.50;;
8708;SDS011;4391;48.678;9.280;2023-08-30T14:58:32;3.78;;;1.50;;
8708;SDS011;4391;48.678;9.280;2023-08-30T15:00:59;4.60;;;1.40;;
8708;SDS011;4391;48.678;9.280;2023-08-30T15:03:26;4.03;;;1.30;;
8708;SDS011;4391;48.678;9.280;2023-08-30T15:05:53;3.55;;;1.60;;
8708;SDS011;4391;48.678;9.280;2023-08-30T15:08:20;3.35;;;1.60;;
8708;SDS011;4391;48.678;9.280;2023-08-30T15:10:51;4.88;;;1.80;;